sensor_id;sensor_type;location;lat;lon;timestamp;pressure;altitude;pressure_sealevel;temperature;humidity
67015;BME280;1033;52.560;13.374;2023-03-04T00:00:24;101301.50;;;1.88;98.12
67015;BME280;1033;52.560;13.374;2023-03-04T00:02:54;101301.31;;;1.80;98.25
67015;BME280;1033;52.560;13.374;2023-03-04T00:05:23;101290.41;;;1.83;98.75
67015;BME280;1033;52.560;13.374;2023-03-04T00:07:52;101291.09;;;1.85;98.75
67015;BME280;1033;52.560;13.374;2023-03-04T00:10:21;101284.50;;;1.89;98.78
67015;BME280;1033;52.560;13.374;2023-03-04T00:12:52;101281.16;;;2.06;98.71
67015;BME280;1033;52.560;13.374;2023-03-04T00:15:21;101289.06;;;2.17;97.40
67015;BME280;1033;52.560;13.374;2023-03-04T00:17:50;101286.41;;;2.27;97.19
67015;BME280;1033;52.560;13.374;2023-03-04T00:20:19;101291.03;;;2.35;96.55
67015;BME280;1033;52.560;13.374;2023-03-04T00:22:48;101296.09;;;2.38;95.94
67015;BME280;1033;52.560;13.374;2023-03-04T00:25:17;101292.03;;;2.43;95.40
67015;BME280;1033;52.560;13.374;2023-03-04T00:27:46;101290.63;;;2.49;95.38
67015;BME280;1033;52.560;13.374;2023-03-04T00:30:17;101286.97;;;2.50;95.19
67015;BME280;1033;52.560;13.374;2023-03-04T00:32:46;101283.75;;;2.56;94.57
67015;BME280;1033;52.560;13.374;2023-03-04T00:35:15;101279.81;;;2.50;94.42
67015;BME280;1033;52.560;13.374;2023-03-04T00:37:44;101281.75;;;2.58;94.14
67015;BME280;1033;52.560;13.374;2023-03-04T00:40:13;101281.19;;;2.64;93.98
67015;BME280;1033;52.560;13.374;2023-03-04T00:42:42;101266.03;;;2.55;93.86
67015;BME280;1033;52.560;13.374;2023-03-04T00:45:11;101272.47;;;2.62;94.00
67015;BME280;1033;52.560;13.374;2023-03-04T00:47:42;101272.22;;;2.65;93.57
67015;BME280;1033;52.560;13.374;2023-03-04T00:50:11;101270.22;;;2.67;93.54
67015;BME280;1033;52.560;13.374;2023-03-04T00:52:40;101275.56;;;2.57;93.54
67015;BME280;1033;52.560;13.374;2023-03-04T00:55:09;101266.28;;;2.61;93.47
67015;BME280;1033;52.560;13.374;2023-03-04T00:57:38;101263.78;;;2.60;93.35
67015;BME280;1033;52.560;13.374;2023-03-04T01:00:09;101269.53;;;2.65;93.40
67015;BME280;1033;52.560;13.374;2023-03-04T01:02:38;101269.38;;;2.57;93.18
67015;BME280;1033;52.560;13.374;2023-03-04T01:05:09;101256.19;;;2.65;92.82
67015;BME280;1033;52.560;13.374;2023-03-04T01:07:38;101255.31;;;2.74;93.01
67015;BME280;1033;52.560;13.374;2023-03-04T01:10:09;101249.66;;;2.77;92.22
67015;BME280;1033;52.560;13.374;2023-03-04T01:12:38;101255.44;;;2.82;92.00
67015;BME280;1033;52.560;13.374;2023-03-04T01:15:10;101251.78;;;2.74;91.59
67015;BME280;1033;52.560;13.374;2023-03-04T01:17:40;101252.50;;;2.85;91.58
67015;BME280;1033;52.560;13.374;2023-03-04T01:20:11;101244.16;;;2.88;91.42
67015;BME280;1033;52.560;13.374;2023-03-04T01:22:41;101233.63;;;2.87;91.00
67015;BME280;1033;52.560;13.374;2023-03-04T01:25:10;101236.16;;;2.88;91.20
67015;BME280;1033;52.560;13.374;2023-03-04T01:27:39;101231.69;;;2.79;91.48
67015;BME280;1033;52.560;13.374;2023-03-04T01:30:10;101228.69;;;2.82;91.55
67015;BME280;1033;52.560;13.374;2023-03-04T01:32:39;101235.88;;;2.82;91.66
67015;BME280;1033;52.560;13.374;2023-03-04T01:35:10;101228.03;;;2.80;91.44
67015;BME280;1033;52.560;13.374;2023-03-04T01:37:39;101219.13;;;2.89;91.42
67015;BME280;1033;52.560;13.374;2023-03-04T01:40:10;101223.19;;;2.93;91.13
67015;BME280;1033;52.560;13.374;2023-03-04T01:42:39;101219.25;;;2.97;91.10
67015;BME280;1033;52.560;13.374;2023-03-04T01:45:11;101220.94;;;2.98;90.96
67015;BME280;1033;52.560;13.374;2023-03-04T01:47:41;101223.03;;;3.04;90.84
67015;BME280;1033;52.560;13.374;2023-03-04T01:50:21;101212.91;;;2.98;91.07
67015;BME280;1033;52.560;13.374;2023-03-04T01:52:54;101200.81;;;3.04;91.16
67015;BME280;1033;52.560;13.374;2023-03-04T01:55:23;101202.28;;;3.16;90.93
67015;BME280;1033;52.560;13.374;2023-03-04T01:57:53;101203.09;;;3.26;90.75
67015;BME280;1033;52.560;13.374;2023-03-04T02:00:27;101197.88;;;3.25;90.47
67015;BME280;1033;52.560;13.374;2023-03-04T02:02:59;101199.56;;;3.26;90.48
67015;BME280;1033;52.560;13.374;2023-03-04T02:05:30;101210.66;;;3.31;90.40
67015;BME280;1033;52.560;13.374;2023-03-04T02:08:00;101196.31;;;3.32;90.28
67015;BME280;1033;52.560;13.374;2023-03-04T02:10:30;101200.78;;;3.41;90.82
67015;BME280;1033;52.560;13.374;2023-03-04T02:13:00;101188.09;;;3.43;89.78
67015;BME280;1033;52.560;13.374;2023-03-04T02:15:30;101189.38;;;3.39;89.98
67015;BME280;1033;52.560;13.374;2023-03-04T02:18:00;101190.31;;;3.47;89.61
67015;BME280;1033;52.560;13.374;2023-03-04T02:20:37;101190.88;;;3.51;89.96
67015;BME280;1033;52.560;13.374;2023-03-04T02:23:14;101185.50;;;3.51;89.98
67015;BME280;1033;52.560;13.374;2023-03-04T02:25:46;101182.38;;;3.56;90.12
67015;BME280;1033;52.560;13.374;2023-03-04T02:28:19;101173.13;;;3.50;90.25
67015;BME280;1033;52.560;13.374;2023-03-04T02:30:48;101168.28;;;3.54;90.54
67015;BME280;1033;52.560;13.374;2023-03-04T02:33:18;101166.47;;;3.54;90.61
67015;BME280;1033;52.560;13.374;2023-03-04T02:35:53;101161.69;;;3.58;90.63
67015;BME280;1033;52.560;13.374;2023-03-04T02:38:23;101159.22;;;3.64;90.24
67015;BME280;1033;52.560;13.374;2023-03-04T02:40:53;101151.75;;;3.68;90.84
67015;BME280;1033;52.560;13.374;2023-03-04T02:43:24;101154.25;;;3.69;90.56
67015;BME280;1033;52.560;13.374;2023-03-04T02:45:54;101149.00;;;3.77;90.18
67015;BME280;1033;52.560;13.374;2023-03-04T02:48:23;101154.75;;;3.82;90.38
67015;BME280;1033;52.560;13.374;2023-03-04T02:50:53;101151.22;;;3.82;90.34
67015;BME280;1033;52.560;13.374;2023-03-04T02:53:22;101150.59;;;3.88;90.09
67015;BME280;1033;52.560;13.374;2023-03-04T02:55:53;101143.94;;;3.74;90.38
67015;BME280;1033;52.560;13.374;2023-03-04T02:58:25;101131.94;;;3.78;90.75
67015;BME280;1033;52.560;13.374;2023-03-04T03:00:54;101139.44;;;3.75;90.45
67015;BME280;1033;52.560;13.374;2023-03-04T03:03:25;101139.69;;;3.81;91.05
67015;BME280;1033;52.560;13.374;2023-03-04T03:05:55;101144.84;;;3.83;90.95
67015;BME280;1033;52.560;13.374;2023-03-04T03:08:25;101137.00;;;3.81;91.18
67015;BME280;1033;52.560;13.374;2023-03-04T03:10:54;101140.44;;;3.91;91.01
67015;BME280;1033;52.560;13.374;2023-03-04T03:13:26;101149.41;;;3.82;91.29
67015;BME280;1033;52.560;13.374;2023-03-04T03:15:56;101145.81;;;3.91;91.68
67015;BME280;1033;52.560;13.374;2023-03-04T03:18:25;101137.91;;;3.90;91.63
67015;BME280;1033;52.560;13.374;2023-03-04T03:20:54;101132.63;;;3.98;91.56
67015;BME280;1033;52.560;13.374;2023-03-04T03:23:23;101129.94;;;3.98;91.76
67015;BME280;1033;52.560;13.374;2023-03-04T03:25:52;101126.91;;;4.11;91.68
67015;BME280;1033;52.560;13.374;2023-03-04T03:28:21;101120.78;;;4.01;91.94
67015;BME280;1033;52.560;13.374;2023-03-04T03:30:52;101113.78;;;4.08;92.26
67015;BME280;1033;52.560;13.374;2023-03-04T03:33:21;101115.47;;;4.09;91.91
67015;BME280;1033;52.560;13.374;2023-03-04T03:35:50;101120.06;;;3.99;91.97
67015;BME280;1033;52.560;13.374;2023-03-04T03:38:19;101110.22;;;3.99;92.56
67015;BME280;1033;52.560;13.374;2023-03-04T03:40:48;101121.63;;;4.01;92.18
67015;BME280;1033;52.560;13.374;2023-03-04T03:43:18;101113.03;;;3.98;92.53
67015;BME280;1033;52.560;13.374;2023-03-04T03:45:47;101106.03;;;3.97;92.66
67015;BME280;1033;52.560;13.374;2023-03-04T03:48:17;101100.66;;;3.97;92.25
67015;BME280;1033;52.560;13.374;2023-03-04T03:50:46;101094.47;;;3.96;92.21
67015;BME280;1033;52.560;13.374;2023-03-04T03:53:15;101098.88;;;4.05;92.18
67015;BME280;1033;52.560;13.374;2023-03-04T03:55:44;101101.72;;;4.04;91.93
67015;BME280;1033;52.560;13.374;2023-03-04T03:58:13;101100.94;;;3.93;92.38
67015;BME280;1033;52.560;13.374;2023-03-04T04:00:42;101103.63;;;3.93;92.87
67015;BME280;1033;52.560;13.374;2023-03-04T04:03:14;101102.03;;;4.01;92.92
67015;BME280;1033;52.560;13.374;2023-03-04T04:05:45;101095.00;;;4.00;92.99
67015;BME280;1033;52.560;13.374;2023-03-04T04:08:14;101089.31;;;4.03;93.20
67015;BME280;1033;52.560;13.374;2023-03-04T04:10:44;101093.72;;;4.12;93.00
67015;BME280;1033;52.560;13.374;2023-03-04T04:13:13;101099.09;;;4.12;92.76
67015;BME280;1033;52.560;13.374;2023-03-04T04:15:42;101089.81;;;4.24;91.81
67015;BME280;1033;52.560;13.374;2023-03-04T04:18:11;101091.97;;;4.20;91.94
67015;BME280;1033;52.560;13.374;2023-03-04T04:20:40;101093.59;;;4.13;92.42
67015;BME280;1033;52.560;13.374;2023-03-04T04:23:11;101093.28;;;4.16;92.58
67015;BME280;1033;52.560;13.374;2023-03-04T04:25:40;101089.91;;;4.14;92.61
67015;BME280;1033;52.560;13.374;2023-03-04T04:28:09;101085.31;;;4.07;92.68
67015;BME280;1033;52.560;13.374;2023-03-04T04:30:38;101088.38;;;4.12;92.78
67015;BME280;1033;52.560;13.374;2023-03-04T04:33:09;101083.34;;;4.09;92.83
67015;BME280;1033;52.560;13.374;2023-03-04T04:35:38;101081.56;;;4.17;92.75
67015;BME280;1033;52.560;13.374;2023-03-04T04:38:08;101080.91;;;4.15;93.13
67015;BME280;1033;52.560;13.374;2023-03-04T04:40:39;101079.91;;;4.16;93.00
67015;BME280;1033;52.560;13.374;2023-03-04T04:43:09;101079.44;;;4.21;92.86
67015;BME280;1033;52.560;13.374;2023-03-04T04:45:38;101069.09;;;4.26;92.68
67015;BME280;1033;52.560;13.374;2023-03-04T04:48:07;101070.44;;;4.30;92.41
67015;BME280;1033;52.560;13.374;2023-03-04T04:50:36;101066.13;;;4.37;91.90
67015;BME280;1033;52.560;13.374;2023-03-04T04:53:05;101058.09;;;4.37;91.71
67015;BME280;1033;52.560;13.374;2023-03-04T04:55:34;101059.31;;;4.43;91.35
67015;BME280;1033;52.560;13.374;2023-03-04T04:58:06;101061.84;;;4.44;91.19
67015;BME280;1033;52.560;13.374;2023-03-04T05:00:35;101062.03;;;4.51;90.80
67015;BME280;1033;52.560;13.374;2023-03-04T05:03:04;101069.03;;;4.44;91.68
67015;BME280;1033;52.560;13.374;2023-03-04T05:05:33;101061.19;;;4.50;91.29
67015;BME280;1033;52.560;13.374;2023-03-04T05:08:02;101064.88;;;4.49;91.13
67015;BME280;1033;52.560;13.374;2023-03-04T05:10:31;101061.38;;;4.57;90.91
67015;BME280;1033;52.560;13.374;2023-03-04T05:13:00;101061.91;;;4.60;90.61
67015;BME280;1033;52.560;13.374;2023-03-04T05:15:31;101067.31;;;4.68;90.31
67015;BME280;1033;52.560;13.374;2023-03-04T05:18:00;101066.97;;;4.63;90.70
67015;BME280;1033;52.560;13.374;2023-03-04T05:20:29;101056.25;;;4.63;90.56
67015;BME280;1033;52.560;13.374;2023-03-04T05:22:58;101053.91;;;4.68;90.47
67015;BME280;1033;52.560;13.374;2023-03-04T05:25:34;101055.63;;;4.69;90.91
67015;BME280;1033;52.560;13.374;2023-03-04T05:28:03;101060.97;;;4.69;90.59
67015;BME280;1033;52.560;13.374;2023-03-04T05:30:35;101056.28;;;4.71;90.95
67015;BME280;1033;52.560;13.374;2023-03-04T05:33:04;101058.28;;;4.69;90.71
67015;BME280;1033;52.560;13.374;2023-03-04T05:35:35;101057.59;;;4.67;91.23
67015;BME280;1033;52.560;13.374;2023-03-04T05:38:06;101063.31;;;4.72;91.10
67015;BME280;1033;52.560;13.374;2023-03-04T05:40:36;101061.97;;;4.68;91.19
67015;BME280;1033;52.560;13.374;2023-03-04T05:43:05;101058.09;;;4.71;91.10
67015;BME280;1033;52.560;13.374;2023-03-04T05:45:36;101059.78;;;4.72;91.42
67015;BME280;1033;52.560;13.374;2023-03-04T05:48:06;101057.09;;;4.64;91.45
67015;BME280;1033;52.560;13.374;2023-03-04T05:50:35;101049.56;;;4.67;91.67
67015;BME280;1033;52.560;13.374;2023-03-04T05:53:04;101051.41;;;4.75;91.89
67015;BME280;1033;52.560;13.374;2023-03-04T05:55:33;101058.28;;;4.69;92.31
67015;BME280;1033;52.560;13.374;2023-03-04T05:58:02;101056.28;;;4.79;91.81
67015;BME280;1033;52.560;13.374;2023-03-04T06:00:31;101050.00;;;4.89;91.99
67015;BME280;1033;52.560;13.374;2023-03-04T06:03:02;101053.47;;;4.81;91.96
67015;BME280;1033;52.560;13.374;2023-03-04T06:05:31;101056.28;;;4.79;92.07
67015;BME280;1033;52.560;13.374;2023-03-04T06:08:00;101046.59;;;4.78;92.43
67015;BME280;1033;52.560;13.374;2023-03-04T06:10:29;101056.63;;;4.76;92.68
67015;BME280;1033;52.560;13.374;2023-03-04T06:12:58;101060.84;;;4.79;92.74
67015;BME280;1033;52.560;13.374;2023-03-04T06:15:27;101055.63;;;4.69;92.94
67015;BME280;1033;52.560;13.374;2023-03-04T06:17:56;101057.13;;;4.72;93.31
67015;BME280;1033;52.560;13.374;2023-03-04T06:20:27;101057.31;;;4.78;93.66
67015;BME280;1033;52.560;13.374;2023-03-04T06:22:56;101065.66;;;4.75;93.74
67015;BME280;1033;52.560;13.374;2023-03-04T06:25:25;101061.16;;;4.76;94.47
67015;BME280;1033;52.560;13.374;2023-03-04T06:27:55;101062.00;;;4.76;94.83
67015;BME280;1033;52.560;13.374;2023-03-04T06:30:24;101063.31;;;4.72;95.13
67015;BME280;1033;52.560;13.374;2023-03-04T06:32:53;101060.31;;;4.75;95.76
67015;BME280;1033;52.560;13.374;2023-03-04T06:35:23;101054.59;;;4.70;96.34
67015;BME280;1033;52.560;13.374;2023-03-04T06:37:54;101058.31;;;4.77;96.99
67015;BME280;1033;52.560;13.374;2023-03-04T06:40:23;101063.53;;;4.79;97.61
67015;BME280;1033;52.560;13.374;2023-03-04T06:42:52;101061.88;;;4.86;97.74
67015;BME280;1033;52.560;13.374;2023-03-04T06:45:21;101064.53;;;4.78;97.45
67015;BME280;1033;52.560;13.374;2023-03-04T06:47:50;101057.69;;;4.84;97.85
67015;BME280;1033;52.560;13.374;2023-03-04T06:50:20;101062.50;;;4.80;97.66
67015;BME280;1033;52.560;13.374;2023-03-04T06:52:49;101069.03;;;4.77;98.88
67015;BME280;1033;52.560;13.374;2023-03-04T06:55:19;101069.72;;;4.79;99.06
67015;BME280;1033;52.560;13.374;2023-03-04T06:57:48;101064.41;;;4.88;99.34
67015;BME280;1033;52.560;13.374;2023-03-04T07:00:18;101059.34;;;4.85;99.46
67015;BME280;1033;52.560;13.374;2023-03-04T07:02:47;101066.09;;;4.89;99.68
67015;BME280;1033;52.560;13.374;2023-03-04T07:05:16;101076.44;;;4.84;99.90
67015;BME280;1033;52.560;13.374;2023-03-04T07:07:45;101066.38;;;4.86;100.00
67015;BME280;1033;52.560;13.374;2023-03-04T07:10:16;101077.13;;;4.86;100.00
67015;BME280;1033;52.560;13.374;2023-03-04T07:12:46;101076.44;;;4.84;100.00
67015;BME280;1033;52.560;13.374;2023-03-04T07:15:16;101079.97;;;4.84;100.00
67015;BME280;1033;52.560;13.374;2023-03-04T07:17:45;101079.78;;;4.77;100.00
67015;BME280;1033;52.560;13.374;2023-03-04T07:20:14;101084.53;;;4.92;100.00
67015;BME280;1033;52.560;13.374;2023-03-04T07:22:43;101076.09;;;4.78;100.00
67015;BME280;1033;52.560;13.374;2023-03-04T07:25:12;101085.50;;;4.82;100.00
67015;BME280;1033;52.560;13.374;2023-03-04T07:27:41;101083.53;;;4.93;100.00
67015;BME280;1033;52.560;13.374;2023-03-04T07:30:12;101074.81;;;4.99;100.00
67015;BME280;1033;52.560;13.374;2023-03-04T07:32:41;101075.03;;;5.13;100.00
67015;BME280;1033;52.560;13.374;2023-03-04T07:35:11;101066.53;;;5.26;100.00
67015;BME280;1033;52.560;13.374;2023-03-04T07:37:40;101064.56;;;5.36;100.00
67015;BME280;1033;52.560;13.374;2023-03-04T07:40:10;101066.25;;;5.45;99.96
67015;BME280;1033;52.560;13.374;2023-03-04T07:42:39;101078.63;;;5.30;100.00
67015;BME280;1033;52.560;13.374;2023-03-04T07:45:13;101074.81;;;5.41;100.00
67015;BME280;1033;52.560;13.374;2023-03-04T07:47:42;101078.28;;;5.25;100.00
67015;BME280;1033;52.560;13.374;2023-03-04T07:50:12;101069.94;;;5.36;100.00
67015;BME280;1033;52.560;13.374;2023-03-04T07:52:46;101068.94;;;5.45;100.00
67015;BME280;1033;52.560;13.374;2023-03-04T07:55:15;101065.25;;;5.46;100.00
67015;BME280;1033;52.560;13.374;2023-03-04T07:57:46;101064.56;;;5.52;100.00
67015;BME280;1033;52.560;13.374;2023-03-04T08:00:18;101061.91;;;5.60;100.00
67015;BME280;1033;52.560;13.374;2023-03-04T08:02:47;101067.94;;;5.54;99.60
67015;BME280;1033;52.560;13.374;2023-03-04T08:05:16;101070.97;;;5.59;100.00
67015;BME280;1033;52.560;13.374;2023-03-04T08:07:46;101063.59;;;5.61;99.07
67015;BME280;1033;52.560;13.374;2023-03-04T08:10:15;101070.78;;;5.45;99.57
67015;BME280;1033;52.560;13.374;2023-03-04T08:12:44;101057.56;;;5.59;99.58
67015;BME280;1033;52.560;13.374;2023-03-04T08:15:13;101066.25;;;5.53;98.60
67015;BME280;1033;52.560;13.374;2023-03-04T08:17:43;101050.47;;;5.34;99.22
67015;BME280;1033;52.560;13.374;2023-03-04T08:20:13;101064.88;;;5.33;99.81
67015;BME280;1033;52.560;13.374;2023-03-04T08:22:42;101061.69;;;5.30;99.65
67015;BME280;1033;52.560;13.374;2023-03-04T08:25:11;101060.19;;;5.43;99.82
67015;BME280;1033;52.560;13.374;2023-03-04T08:27:40;101068.59;;;5.40;98.36
67015;BME280;1033;52.560;13.374;2023-03-04T08:30:11;101064.41;;;5.62;98.26
67015;BME280;1033;52.560;13.374;2023-03-04T08:32:40;101057.41;;;5.61;97.30
67015;BME280;1033;52.560;13.374;2023-03-04T08:35:10;101047.81;;;5.50;95.44
67015;BME280;1033;52.560;13.374;2023-03-04T08:37:39;101055.53;;;5.45;95.01
67015;BME280;1033;52.560;13.374;2023-03-04T08:40:09;101051.16;;;5.77;94.19
67015;BME280;1033;52.560;13.374;2023-03-04T08:42:39;101056.41;;;5.70;91.37
67015;BME280;1033;52.560;13.374;2023-03-04T08:45:09;101050.19;;;5.69;90.82
67015;BME280;1033;52.560;13.374;2023-03-04T08:47:38;101038.78;;;5.92;90.74
67015;BME280;1033;52.560;13.374;2023-03-04T08:50:10;101044.16;;;6.08;88.94
67015;BME280;1033;52.560;13.374;2023-03-04T08:52:40;101040.75;;;6.30;87.00
67015;BME280;1033;52.560;13.374;2023-03-04T08:55:09;101037.59;;;6.19;85.33
67015;BME280;1033;52.560;13.374;2023-03-04T08:57:38;101045.16;;;6.07;84.68
67015;BME280;1033;52.560;13.374;2023-03-04T09:00:08;101025.84;;;6.11;83.26
67015;BME280;1033;52.560;13.374;2023-03-04T09:02:38;101033.06;;;6.27;81.16
67015;BME280;1033;52.560;13.374;2023-03-04T09:05:07;101038.41;;;6.35;81.73
67015;BME280;1033;52.560;13.374;2023-03-04T09:07:38;101028.34;;;6.21;80.82
67015;BME280;1033;52.560;13.374;2023-03-04T09:10:08;101034.09;;;6.18;80.25
67015;BME280;1033;52.560;13.374;2023-03-04T09:12:37;101038.25;;;6.21;81.16
67015;BME280;1033;52.560;13.374;2023-03-04T09:15:07;101038.44;;;6.27;79.80
67015;BME280;1033;52.560;13.374;2023-03-04T09:17:39;101032.38;;;6.33;79.12
67015;BME280;1033;52.560;13.374;2023-03-04T09:20:10;101053.72;;;6.19;78.45
67015;BME280;1033;52.560;13.374;2023-03-04T09:22:41;101048.63;;;6.40;77.81
67015;BME280;1033;52.560;13.374;2023-03-04T09:25:12;101049.28;;;6.50;78.94
67015;BME280;1033;52.560;13.374;2023-03-04T09:27:42;101052.97;;;6.49;79.29
67015;BME280;1033;52.560;13.374;2023-03-04T09:30:12;101056.91;;;6.38;79.69
67015;BME280;1033;52.560;13.374;2023-03-04T09:32:41;101054.53;;;6.43;80.34
67015;BME280;1033;52.560;13.374;2023-03-04T09:35:10;101049.47;;;6.40;79.23
67015;BME280;1033;52.560;13.374;2023-03-04T09:37:40;101070.19;;;6.24;79.92
67015;BME280;1033;52.560;13.374;2023-03-04T09:40:16;101068.00;;;6.11;80.29
67015;BME280;1033;52.560;13.374;2023-03-04T09:42:49;101054.91;;;6.24;80.51
67015;BME280;1033;52.560;13.374;2023-03-04T09:45:22;101058.25;;;6.26;79.83
67015;BME280;1033;52.560;13.374;2023-03-04T09:47:53;101071.66;;;6.34;78.45
67015;BME280;1033;52.560;13.374;2023-03-04T09:50:23;101059.94;;;6.27;78.91
67015;BME280;1033;52.560;13.374;2023-03-04T09:53:05;101059.88;;;6.51;78.51
67015;BME280;1033;52.560;13.374;2023-03-04T09:55:37;101057.03;;;6.53;78.34
67015;BME280;1033;52.560;13.374;2023-03-04T09:58:14;101064.28;;;6.36;78.03
67015;BME280;1033;52.560;13.374;2023-03-04T10:00:53;101061.56;;;6.44;78.77
67015;BME280;1033;52.560;13.374;2023-03-04T10:03:24;101064.44;;;6.43;78.31
67015;BME280;1033;52.560;13.374;2023-03-04T10:05:59;101058.53;;;6.55;77.63
67015;BME280;1033;52.560;13.374;2023-03-04T10:08:45;101063.94;;;6.47;77.20
67015;BME280;1033;52.560;13.374;2023-03-04T10:11:22;101058.91;;;6.36;77.70
67015;BME280;1033;52.560;13.374;2023-03-04T10:14:13;101053.97;;;6.56;77.12
67015;BME280;1033;52.560;13.374;2023-03-04T10:16:46;101055.16;;;6.62;75.56
67015;BME280;1033;52.560;13.374;2023-03-04T10:19:27;101054.50;;;6.51;75.63
67015;BME280;1033;52.560;13.374;2023-03-04T10:21:58;101054.81;;;6.57;75.89
67015;BME280;1033;52.560;13.374;2023-03-04T10:24:29;101061.81;;;6.74;75.49
67015;BME280;1033;52.560;13.374;2023-03-04T10:27:03;101054.78;;;6.73;75.91
67015;BME280;1033;52.560;13.374;2023-03-04T10:29:34;101050.38;;;6.80;75.77
67015;BME280;1033;52.560;13.374;2023-03-04T10:32:06;101046.41;;;6.60;76.62
67015;BME280;1033;52.560;13.374;2023-03-04T10:34:37;101050.25;;;6.65;76.28
67015;BME280;1033;52.560;13.374;2023-03-04T10:37:06;101050.84;;;6.91;75.89
67015;BME280;1033;52.560;13.374;2023-03-04T10:39:39;101057.78;;;7.17;75.54
67015;BME280;1033;52.560;13.374;2023-03-04T10:42:25;101053.13;;;7.03;74.31
67015;BME280;1033;52.560;13.374;2023-03-04T10:44:57;101054.91;;;6.79;73.91
67015;BME280;1033;52.560;13.374;2023-03-04T10:47:28;101061.19;;;6.64;73.84
67015;BME280;1033;52.560;13.374;2023-03-04T10:49:59;101052.25;;;6.71;73.22
67015;BME280;1033;52.560;13.374;2023-03-04T10:52:29;101052.75;;;6.75;73.15
67015;BME280;1033;52.560;13.374;2023-03-04T10:55:03;101056.50;;;6.49;72.84
67015;BME280;1033;52.560;13.374;2023-03-04T10:57:37;101064.28;;;6.36;73.36
67015;BME280;1033;52.560;13.374;2023-03-04T11:00:24;101068.81;;;6.36;72.57
67015;BME280;1033;52.560;13.374;2023-03-04T11:03:22;101073.22;;;6.29;71.65
67015;BME280;1033;52.560;13.374;2023-03-04T11:06:15;101059.91;;;6.43;70.92
67015;BME280;1033;52.560;13.374;2023-03-04T11:08:51;101062.22;;;6.63;69.50
67015;BME280;1033;52.560;13.374;2023-03-04T11:22:20;101062.59;;;6.43;70.11
67015;BME280;1033;52.560;13.374;2023-03-04T11:24:57;101064.25;;;6.52;70.31
67015;BME280;1033;52.560;13.374;2023-03-04T11:27:40;101066.16;;;6.83;69.00
67015;BME280;1033;52.560;13.374;2023-03-04T11:30:28;101060.25;;;6.87;67.48
67015;BME280;1033;52.560;13.374;2023-03-04T11:33:18;101061.72;;;6.98;66.37
67015;BME280;1033;52.560;13.374;2023-03-04T11:36:01;101081.47;;;6.82;64.90
67015;BME280;1033;52.560;13.374;2023-03-04T11:38:36;101056.63;;;6.64;65.19
67015;BME280;1033;52.560;13.374;2023-03-04T11:41:12;101064.91;;;6.63;65.21
67015;BME280;1033;52.560;13.374;2023-03-04T11:43:45;101072.25;;;6.77;64.75
67015;BME280;1033;52.560;13.374;2023-03-04T11:46:39;101072.94;;;6.71;64.49
67015;BME280;1033;52.560;13.374;2023-03-04T11:52:17;101073.03;;;6.38;66.00
67015;BME280;1033;52.560;13.374;2023-03-04T11:55:10;101068.09;;;6.58;66.03
67015;BME280;1033;52.560;13.374;2023-03-04T11:57:52;101079.34;;;6.53;66.63
67015;BME280;1033;52.560;13.374;2023-03-04T12:00:33;101075.47;;;6.64;66.10
67015;BME280;1033;52.560;13.374;2023-03-04T12:06:03;101083.91;;;6.45;66.02
67015;BME280;1033;52.560;13.374;2023-03-04T12:08:52;101080.22;;;6.46;65.70
67015;BME280;1033;52.560;13.374;2023-03-04T12:11:33;101072.00;;;6.47;65.56
67015;BME280;1033;52.560;13.374;2023-03-04T12:14:37;101069.34;;;6.86;65.02
67015;BME280;1033;52.560;13.374;2023-03-04T12:20:40;101065.88;;;6.70;63.34
67015;BME280;1033;52.560;13.374;2023-03-04T12:23:25;101071.75;;;6.73;62.86
67015;BME280;1033;52.560;13.374;2023-03-04T12:26:01;101066.91;;;7.08;62.50
67015;BME280;1033;52.560;13.374;2023-03-04T12:28:48;101082.69;;;6.64;62.06
67015;BME280;1033;52.560;13.374;2023-03-04T12:31:35;101065.53;;;6.73;62.26
67015;BME280;1033;52.560;13.374;2023-03-04T12:37:38;101074.00;;;6.45;62.11
67015;BME280;1033;52.560;13.374;2023-03-04T12:40:25;101069.94;;;6.49;61.00
67015;BME280;1033;52.560;13.374;2023-03-04T12:46:18;101063.22;;;6.62;60.23
67015;BME280;1033;52.560;13.374;2023-03-04T12:49:01;101069.91;;;6.66;59.61
67015;BME280;1033;52.560;13.374;2023-03-04T12:51:43;101082.16;;;6.68;58.63
67015;BME280;1033;52.560;13.374;2023-03-04T12:54:24;101067.75;;;6.61;59.07
67015;BME280;1033;52.560;13.374;2023-03-04T12:56:59;101067.19;;;6.82;58.49
67015;BME280;1033;52.560;13.374;2023-03-04T12:59:35;101082.94;;;6.93;58.51
67015;BME280;1033;52.560;13.374;2023-03-04T13:02:30;101066.56;;;6.64;58.71
67015;BME280;1033;52.560;13.374;2023-03-04T13:05:21;101068.50;;;6.86;58.99
67015;BME280;1033;52.560;13.374;2023-03-04T13:07:56;101069.03;;;6.73;57.83
67015;BME280;1033;52.560;13.374;2023-03-04T13:10:27;101066.06;;;6.60;58.40
67015;BME280;1033;52.560;13.374;2023-03-04T13:12:57;101061.69;;;6.59;59.17
67015;BME280;1033;52.560;13.374;2023-03-04T13:18:48;101074.50;;;6.57;59.70
67015;BME280;1033;52.560;13.374;2023-03-04T13:21:22;101073.31;;;6.51;59.57
67015;BME280;1033;52.560;13.374;2023-03-04T13:23:52;101078.19;;;6.40;59.74
67015;BME280;1033;52.560;13.374;2023-03-04T13:26:32;101073.38;;;6.19;60.83
67015;BME280;1033;52.560;13.374;2023-03-04T13:29:30;101075.53;;;6.40;60.83
67015;BME280;1033;52.560;13.374;2023-03-04T13:32:02;101074.38;;;6.26;60.11
67015;BME280;1033;52.560;13.374;2023-03-04T13:34:45;101076.38;;;6.32;60.27
67015;BME280;1033;52.560;13.374;2023-03-04T13:37:45;101071.66;;;6.34;59.94
67015;BME280;1033;52.560;13.374;2023-03-04T13:40:35;101066.28;;;6.34;59.37
67015;BME280;1033;52.560;13.374;2023-03-04T13:43:25;101079.06;;;6.32;59.86
67015;BME280;1033;52.560;13.374;2023-03-04T13:45:55;101075.41;;;6.09;60.10
67015;BME280;1033;52.560;13.374;2023-03-04T13:48:31;101076.75;;;6.05;60.29
67015;BME280;1033;52.560;13.374;2023-03-04T13:51:11;101073.56;;;6.09;60.55
67015;BME280;1033;52.560;13.374;2023-03-04T13:54:04;101079.91;;;6.17;59.01
67015;BME280;1033;52.560;13.374;2023-03-04T13:56:35;101080.25;;;5.97;59.41